WetterOnline ( https://www.wetteronline.de )

Wetter aktuell Eggesin

Aktuelles Wetter: Ueckermünde (7m)

6-stündlich | Neueste Meldungen
Ortszeit Temperatur Wetter
Fr, 14.06. 2:00 10.6° C bewölkt
Do, 13.06. 20:00 15.9° C bedeckt
Do, 13.06. 14:00 15.7° C leicht bewölkt
Do, 13.06. 8:00 11.2° C bedeckt
Do, 13.06. 2:00 9.1° C bewölkt
Mi, 12.06. 20:00 13.8° C leichter Regen
Mi, 12.06. 14:00 15.9° C leicht bewölkt
Mi, 12.06. 8:00 11.4° C bedeckt
Ortszeit Temperatur Wetter
Fr, 14.06. 4:30 9.5° C bedeckt
Fr, 14.06. 4:20 9.5° C bedeckt
Fr, 14.06. 4:10 9.4° C bedeckt
Fr, 14.06. 4:00 9.7° C bedeckt
Fr, 14.06. 3:50 9.7° C bedeckt
Fr, 14.06. 3:40 9.7° C bewölkt
Fr, 14.06. 3:30 10.3° C bewölkt
Fr, 14.06. 3:00 11.0° C bedeckt
Fr, 14.06. 2:30 11.1° C bedeckt
Fr, 14.06. 2:00 10.6° C bewölkt
Fr, 14.06. 1:30 10.7° C bedeckt
Ortszeit Relative Feuchte Sichtweite
Fr, 14.06. 2:00 82% >70 km
Do, 13.06. 20:00 57% >70 km
Do, 13.06. 14:00 48% 50 km
Do, 13.06. 8:00 80% >70 km
Do, 13.06. 2:00 93% 55 km
Mi, 12.06. 20:00 64% 30 km
Mi, 12.06. 14:00 63% 50 km
Mi, 12.06. 8:00 85% 60 km
Ortszeit Relative Feuchte Sichtweite
Fr, 14.06. 4:30 87% 55 km
Fr, 14.06. 4:20 87% -
Fr, 14.06. 4:10 87% -
Fr, 14.06. 4:00 86% 55 km
Fr, 14.06. 3:50 86% -
Fr, 14.06. 3:40 86% -
Fr, 14.06. 3:30 82% 60 km
Fr, 14.06. 3:00 80% 65 km
Fr, 14.06. 2:30 80% 65 km
Fr, 14.06. 2:00 82% >70 km
Fr, 14.06. 1:30 83% >70 km
Ortszeit Niederschlagsmenge Niederschlagsart
Fr, 14.06. 2:00 0.0 l/m2 in 6 Std. -
Do, 13.06. 20:00 0.1 l/m2 in 12 Std. Regen
Do, 13.06. 14:00 0.1 l/m2 in 6 Std. Regen
Do, 13.06. 8:00 0.1 l/m2 in 12 Std. -
Do, 13.06. 2:00 0.1 l/m2 in 6 Std. Regen
Mi, 12.06. 20:00 2 l/m2 in 12 Std. Regen
Mi, 12.06. 14:00 2 l/m2 in 6 Std. Regen
Mi, 12.06. 8:00 0.1 l/m2 in 12 Std. -
Ortszeit Niederschlagsmenge Niederschlagsart
Fr, 14.06. 4:30 0.0 l/m2 in 30 Min -
Fr, 14.06. 4:20 keine Meldung -
Fr, 14.06. 4:10 keine Meldung -
Fr, 14.06. 4:00 0.0 l/m2 in 1 Std. -
Fr, 14.06. 3:50 keine Meldung -
Fr, 14.06. 3:40 keine Meldung -
Fr, 14.06. 3:30 0.0 l/m2 in 30 Min -
Fr, 14.06. 3:00 0.0 l/m2 in 1 Std. -
Fr, 14.06. 2:30 0.0 l/m2 in 30 Min -
Fr, 14.06. 2:00 0.0 l/m2 in 1 Std. -
Fr, 14.06. 1:30 0.0 l/m2 in 30 Min -
Ortszeit Stärke Spitze Richtung
km/h Bft. km/h Grad Sektor
Fr, 14.06. 2:00 7 2 14 160° S
Do, 13.06. 20:00 9 2 31 310° NW
Do, 13.06. 14:00 20 4 33 250° W
Do, 13.06. 8:00 11 2 18 260° W
Do, 13.06. 2:00 9 2 24 220° SW
Mi, 12.06. 20:00 14 3 40 270° W
Mi, 12.06. 14:00 13 3 44 230° SW
Mi, 12.06. 8:00 15 3 26 240° SW
Ortszeit Stärke Spitze Richtung
km/h Bft. km/h Grad Sektor
Fr, 14.06. 4:30 7 2 11 160° S
Fr, 14.06. 4:20 7 2 - 160° S
Fr, 14.06. 4:10 7 2 - 160° S
Fr, 14.06. 4:00 6 1 9 170° S
Fr, 14.06. 3:50 6 1 - 170° S
Fr, 14.06. 3:40 6 1 - 160° S
Fr, 14.06. 3:30 7 2 11 170° S
Fr, 14.06. 3:00 7 2 11 160° S
Fr, 14.06. 2:30 9 2 13 160° S
Fr, 14.06. 2:00 7 2 11 160° S
Fr, 14.06. 1:30 7 2 11 160° S
Ortszeit Untergrenze Bedeckung Gattung
total tief tief mittel hoch
Fr, 14.06. 2:00 2700 m 8/8 5/8 - - -
Do, 13.06. 20:00 2400 m 8/8 8/8 - - -
Do, 13.06. 14:00 2700 m 3/8 3/8 - - -
Do, 13.06. 8:00 3300 m 8/8 8/8 - - -
Do, 13.06. 2:00 5400 m 7/8 7/8 - - -
Mi, 12.06. 20:00 1800 m 6/8 6/8 - - -
Mi, 12.06. 14:00 2100 m 3/8 1/8 - - -
Mi, 12.06. 8:00 1800 m 8/8 8/8 - - -
Ortszeit Bedeckungsgrad in Achtel und Wolkenuntergrenze
Fr, 14.06. 4:30 8(5400m)
Fr, 14.06. 4:20 8(5400m)
Fr, 14.06. 4:10 8
Fr, 14.06. 4:00 8(5700m)
Fr, 14.06. 3:50 8(5700m)
Fr, 14.06. 3:40 7
Fr, 14.06. 3:30 7(2400m) 7(6900m) 7(8100m)
Fr, 14.06. 3:00 8(2400m)
Fr, 14.06. 2:30 8(2400m)
Fr, 14.06. 2:00 5(2700m) 8(3600m)
Fr, 14.06. 1:30 8(3300m)
Ortszeit Luftdruck NN (hPa) Tendenz (hPa in 3 Std.)
Fr, 14.06. 2:00 1016 - 0,5
Do, 13.06. 20:00 1016 + 0,3
Do, 13.06. 14:00 1016 - 0,7
Do, 13.06. 8:00 1017 + 0,6
Do, 13.06. 2:00 1016 + 0,1
Mi, 12.06. 20:00 1016 - 0,3
Mi, 12.06. 14:00 1015 0,0
Mi, 12.06. 8:00 1014 + 0,8
Ortszeit Luftdruck NN (hPa) Tendenz (hPa in 3 Std.)
Fr, 14.06. 4:30 1015 - 0,9
Fr, 14.06. 4:20 1015 keine Meldung
Fr, 14.06. 4:10 1015 keine Meldung
Fr, 14.06. 4:00 1015 - 0,9
Fr, 14.06. 3:50 1015 keine Meldung
Fr, 14.06. 3:40 1015 keine Meldung
Fr, 14.06. 3:30 1015 - 0,7
Fr, 14.06. 3:00 1016 - 0,8
Fr, 14.06. 2:30 1016 - 0,6
Fr, 14.06. 2:00 1016 - 0,5
Fr, 14.06. 1:30 1016 - 0,5
Ortszeit Schneehöhe (cm)
Fr, 14.06. 2:00 0
Do, 13.06. 20:00 0
Do, 13.06. 14:00 0
Do, 13.06. 8:00 0
Do, 13.06. 2:00 0
Mi, 12.06. 20:00 0
Mi, 12.06. 14:00 0
Mi, 12.06. 8:00 0
Ortszeit Schneehöhe (cm)
Fr, 14.06. 4:30 0
Fr, 14.06. 4:20 0
Fr, 14.06. 4:10 -
Fr, 14.06. 4:00 0
Fr, 14.06. 3:50 0
Fr, 14.06. 3:40 -
Fr, 14.06. 3:30 0
Fr, 14.06. 3:00 0
Fr, 14.06. 2:30 0
Fr, 14.06. 2:00 0
Fr, 14.06. 1:30 0
Link zu dieser Seite / Seite empfehlen

Das Wetter in ...